Time;durP1;ratioP1;P1;durP2;ratioP2;P2;SDS_P1;SDS_P2;PMS_P1;PMS_P2;Temp;Humidity;BMP_temperature;BMP_pressure;BME280_temperature;BME280_humidity;BME280_pressure;Samples;Min_cycle;Max_cycle;Signal;HPM_P1;HPM_P2
2021/12/17 00:00:36;;;;;;;;;;;11.10;98.40;;;;;;4951454;28;20313;-77
2021/12/17 00:08:28;;;;;;;;;;;11.00;98.70;;;;;;4949587;28;20013;-76
2021/12/17 00:10:54;;;;;;;;;;;11.00;99.00;;;;;;4970933;28;19997;-76
2021/12/17 00:13:20;;;;;;;;;;;11.00;99.00;;;;;;4970216;28;20276;-76
2021/12/17 00:15:47;;;;;;;;;;;11.20;98.80;;;;;;4971851;28;19932;-76
2021/12/17 00:18:23;;;;;;;;;;;11.20;99.00;;;;;;4971977;28;19906;-75
2021/12/17 00:40:13;;;;;;;;;;;11.20;99.20;;;;;;4972381;28;19961;-76
2021/12/17 00:40:30;;;;;;;;;;;11.00;99.90;;;;;;4975443;28;19917;-76
2021/12/17 00:48:35;;;;;;;;;;;10.90;99.60;;;;;;4975657;28;22543;-76
2021/12/17 00:53:46;;;;;;;;;;;10.90;99.60;;;;;;4975293;28;20023;-75
2021/12/17 00:56:12;;;;;;;;;;;10.80;99.30;;;;;;4975012;28;19958;-76
2021/12/17 00:58:37;;;;;;;;;;;10.90;99.30;;;;;;4975197;28;19917;-76
2021/12/17 01:01:03;;;;;;;;;;;10.90;99.10;;;;;;4974955;28;19914;-76
2021/12/17 01:03:28;;;;;;;;;;;11.00;99.00;;;;;;4974663;28;19914;-75
2021/12/17 01:05:54;;;;;;;;;;;11.00;99.10;;;;;;4974964;28;20334;-76
2021/12/17 01:08:20;;;;;;;;;;;11.10;98.90;;;;;;4973887;28;19913;-75
2021/12/17 01:10:51;;;;;;;;;;;11.10;98.70;;;;;;4974609;28;19910;-75
2021/12/17 01:13:17;;;;;;;;;;;11.20;98.60;;;;;;4974675;28;19910;-75
2021/12/17 01:15:42;;;;;;;;;;;11.20;98.60;;;;;;4973987;28;20000;-75
2021/12/17 01:18:13;;;;;;;;;;;11.10;98.50;;;;;;4974784;28;19914;-75
2021/12/17 01:21:07;;;;;;;;;;;11.10;98.50;;;;;;4958024;28;19909;-75
2021/12/17 01:37:02;;;;;;;;;;;11.20;98.10;;;;;;4974806;28;20239;-76
2021/12/17 01:40:39;;;;;;;;;;;11.30;98.00;;;;;;4973267;28;19910;-76
2021/12/17 01:42:24;;;;;;;;;;;11.30;98.00;;;;;;4974015;28;20005;-75
2021/12/17 01:44:50;;;;;;;;;;;11.30;97.90;;;;;;4957478;28;20006;-75
2021/12/17 01:47:15;;;;;;;;;;;11.30;97.90;;;;;;4974270;28;19910;-75
2021/12/17 02:00:21;;;;;;;;;;;11.20;97.70;;;;;;4974400;28;19972;-75
2021/12/17 02:02:49;;;;;;;;;;;11.10;97.50;;;;;;4974559;28;19997;-76
2021/12/17 02:05:15;;;;;;;;;;;11.10;97.60;;;;;;4973600;28;19922;-76
2021/12/17 02:07:42;;;;;;;;;;;11.10;97.70;;;;;;4956755;28;19989;-76
2021/12/17 02:28:45;;;;;;;;;;;11.30;97.30;;;;;;4973842;28;19981;-74
2021/12/17 02:33:39;;;;;;;;;;;11.30;97.20;;;;;;4973489;28;19922;-77
2021/12/17 02:36:06;;;;;;;;;;;11.30;97.10;;;;;;4983268;28;19956;-76
2021/12/17 02:38:38;;;;;;;;;;;11.30;97.00;;;;;;4992794;28;19898;-76
2021/12/17 02:46:33;;;;;;;;;;;11.30;97.10;;;;;;4992254;28;19995;-75
2021/12/17 02:48:59;;;;;;;;;;;11.20;97.10;;;;;;4992354;28;19913;-76
2021/12/17 02:51:24;;;;;;;;;;;11.20;97.10;;;;;;4992350;28;19953;-76
2021/12/17 02:53:50;;;;;;;;;;;11.10;97.20;;;;;;4992835;28;19914;-75
2021/12/17 02:56:15;;;;;;;;;;;11.10;97.20;;;;;;4975105;28;20016;-75
2021/12/17 02:58:41;;;;;;;;;;;11.00;97.20;;;;;;4992282;28;19910;-77
2021/12/17 03:01:08;;;;;;;;;;;11.00;97.30;;;;;;4975363;28;20450;-76
2021/12/17 03:03:35;;;;;;;;;;;11.10;97.40;;;;;;4991999;28;20264;-76
2021/12/17 03:06:02;;;;;;;;;;;11.00;97.30;;;;;;4975279;28;19922;-76
2021/12/17 03:08:29;;;;;;;;;;;11.00;97.50;;;;;;4974773;28;19914;-75
2021/12/17 03:10:55;;;;;;;;;;;11.10;97.40;;;;;;4992116;28;20315;-75
2021/12/17 03:13:22;;;;;;;;;;;11.20;97.30;;;;;;4991875;28;19914;-75
2021/12/17 03:15:53;;;;;;;;;;;11.20;97.30;;;;;;4992239;28;19910;-75
2021/12/17 03:23:48;;;;;;;;;;;11.00;97.50;;;;;;4992293;28;19976;-75
2021/12/17 03:26:18;;;;;;;;;;;11.00;97.70;;;;;;4992031;28;19941;-76
2021/12/17 03:28:45;;;;;;;;;;;11.10;97.70;;;;;;4992006;28;20291;-77
2021/12/17 03:31:10;;;;;;;;;;;11.10;97.80;;;;;;4991982;28;20397;-76
2021/12/17 03:33:38;;;;;;;;;;;11.00;97.80;;;;;;4991717;28;19913;-76
2021/12/17 03:36:03;;;;;;;;;;;11.10;97.90;;;;;;4992192;28;19935;-75
2021/12/17 03:38:29;;;;;;;;;;;10.90;98.00;;;;;;4974415;28;19976;-77
2021/12/17 03:41:10;;;;;;;;;;;10.90;98.20;;;;;;4991408;28;19917;-76
2021/12/17 03:43:37;;;;;;;;;;;11.10;98.40;;;;;;4991451;28;19916;-76
2021/12/17 03:46:02;;;;;;;;;;;11.10;98.20;;;;;;4991739;28;19920;-76
2021/12/17 03:48:32;;;;;;;;;;;11.10;98.20;;;;;;4974220;28;19909;-75
2021/12/17 03:50:57;;;;;;;;;;;11.10;98.30;;;;;;4975024;28;19937;-76
2021/12/17 03:53:23;;;;;;;;;;;11.10;98.40;;;;;;4974253;28;19949;-75
2021/12/17 03:55:49;;;;;;;;;;;11.20;98.40;;;;;;4991494;28;19944;-76
2021/12/17 03:58:17;;;;;;;;;;;11.20;98.50;;;;;;4990581;28;20173;-75
2021/12/17 04:00:42;;;;;;;;;;;11.20;98.60;;;;;;4991430;28;19984;-75
2021/12/17 04:03:08;;;;;;;;;;;11.10;98.60;;;;;;4991186;28;20327;-76
2021/12/17 04:05:33;;;;;;;;;;;11.10;98.80;;;;;;4991678;28;20056;-75
2021/12/17 04:07:59;;;;;;;;;;;11.10;98.80;;;;;;4991000;28;19991;-76
2021/12/17 04:10:27;;;;;;;;;;;11.10;98.80;;;;;;4991158;28;19910;-76
2021/12/17 04:13:12;;;;;;;;;;;11.00;99.00;;;;;;4991161;28;19942;-76
2021/12/17 04:15:37;;;;;;;;;;;11.00;99.10;;;;;;4991320;28;19944;-76
2021/12/17 04:18:07;;;;;;;;;;;11.00;99.20;;;;;;4991762;28;20319;-76
2021/12/17 04:20:33;;;;;;;;;;;11.10;99.30;;;;;;4991417;28;19910;-75
2021/12/17 04:22:59;;;;;;;;;;;11.10;99.30;;;;;;4991065;28;19921;-76
2021/12/17 04:25:25;;;;;;;;;;;11.00;99.30;;;;;;4990963;28;19910;-76
2021/12/17 04:27:51;;;;;;;;;;;11.10;99.20;;;;;;4990863;28;19933;-76
2021/12/17 04:30:16;;;;;;;;;;;11.10;99.30;;;;;;4991180;28;20251;-76
2021/12/17 04:32:42;;;;;;;;;;;11.10;99.20;;;;;;4992022;28;20255;-77
2021/12/17 04:35:07;;;;;;;;;;;11.10;99.20;;;;;;4991149;28;19918;-77
2021/12/17 04:37:33;;;;;;;;;;;11.10;99.20;;;;;;4990906;28;19920;-77
2021/12/17 04:39:59;;;;;;;;;;;11.00;99.30;;;;;;4991012;28;19988;-76
2021/12/17 04:42:45;;;;;;;;;;;11.00;99.40;;;;;;4990905;28;19916;-75
2021/12/17 04:45:10;;;;;;;;;;;11.00;99.50;;;;;;4990719;28;20072;-75
2021/12/17 04:58:32;;;;;;;;;;;11.20;99.40;;;;;;4991117;28;20354;-76
2021/12/17 05:00:58;;;;;;;;;;;11.10;99.40;;;;;;4973720;28;19941;-75
2021/12/17 05:03:24;;;;;;;;;;;11.10;99.50;;;;;;4973747;28;19925;-75
2021/12/17 05:05:49;;;;;;;;;;;11.10;99.50;;;;;;4973743;28;19980;-75
2021/12/17 05:08:18;;;;;;;;;;;11.00;99.70;;;;;;4991566;28;19976;-76
2021/12/17 05:11:01;;;;;;;;;;;10.90;99.70;;;;;;4977022;28;19921;-76
2021/12/17 05:21:23;;;;;;;;;;;10.90;99.90;;;;;;4994486;28;19969;-77
2021/12/17 05:23:51;;;;;;;;;;;11.00;99.90;;;;;;4994710;28;20275;-76
2021/12/17 05:26:17;;;;;;;;;;;11.10;99.90;;;;;;4994149;28;19941;-77
2021/12/17 05:28:43;;;;;;;;;;;11.10;99.90;;;;;;4994075;28;19909;-77
2021/12/17 05:31:09;;;;;;;;;;;11.00;99.90;;;;;;4976903;28;19976;-76
2021/12/17 05:33:34;;;;;;;;;;;10.90;99.90;;;;;;4993932;28;19921;-78
2021/12/17 05:36:00;;;;;;;;;;;10.80;99.90;;;;;;4994324;28;19916;-76
2021/12/17 05:38:26;;;;;;;;;;;10.90;99.90;;;;;;4994073;28;19910;-75
2021/12/17 05:40:52;;;;;;;;;;;10.90;99.90;;;;;;4993873;28;20208;-76
2021/12/17 05:43:18;;;;;;;;;;;11.00;99.90;;;;;;4993742;28;19953;-76
2021/12/17 05:48:22;;;;;;;;;;;11.00;99.90;;;;;;4994060;28;19964;-77
2021/12/17 05:50:49;;;;;;;;;;;10.90;99.90;;;;;;4994026;28;19937;-76
2021/12/17 05:53:15;;;;;;;;;;;11.00;99.90;;;;;;4993479;28;19909;-76
2021/12/17 05:55:40;;;;;;;;;;;11.10;99.90;;;;;;4993652;28;19909;-76
2021/12/17 05:58:07;;;;;;;;;;;11.10;99.90;;;;;;4993635;28;19909;-76
2021/12/17 06:00:33;;;;;;;;;;;11.20;99.90;;;;;;4993566;28;20210;-75
2021/12/17 06:02:59;;;;;;;;;;;11.20;99.90;;;;;;4993933;28;19910;-75
2021/12/17 06:05:25;;;;;;;;;;;11.10;99.90;;;;;;4993054;28;19922;-76
2021/12/17 06:07:51;;;;;;;;;;;11.10;99.90;;;;;;4993306;28;19913;-76
2021/12/17 06:10:17;;;;;;;;;;;11.10;99.90;;;;;;4993252;28;19916;-77
2021/12/17 06:12:42;;;;;;;;;;;11.10;99.90;;;;;;4993167;28;19910;-76
2021/12/17 06:15:09;;;;;;;;;;;11.10;99.90;;;;;;4975904;28;19983;-75
2021/12/17 06:17:35;;;;;;;;;;;11.10;99.90;;;;;;4993656;28;19912;-76
2021/12/17 06:20:01;;;;;;;;;;;11.10;99.90;;;;;;4992545;28;20334;-76
2021/12/17 06:22:26;;;;;;;;;;;11.10;99.90;;;;;;4993220;28;19909;-76
2021/12/17 06:24:52;;;;;;;;;;;11.10;99.90;;;;;;4975928;28;19910;-76
2021/12/17 06:27:18;;;;;;;;;;;11.20;99.90;;;;;;4992938;28;19996;-76
2021/12/17 06:29:44;;;;;;;;;;;11.10;99.90;;;;;;4975245;28;19918;-77
2021/12/17 06:32:10;;;;;;;;;;;11.10;99.90;;;;;;4993013;28;20343;-77
2021/12/17 06:34:36;;;;;;;;;;;11.10;99.90;;;;;;4975532;28;19963;-76
2021/12/17 06:37:02;;;;;;;;;;;11.10;99.90;;;;;;4992905;28;20000;-77
2021/12/17 06:39:27;;;;;;;;;;;11.10;99.90;;;;;;4992629;28;19917;-75
2021/12/17 06:41:53;;;;;;;;;;;11.20;99.90;;;;;;4988201;28;20101;-77
2021/12/17 06:44:22;;;;;;;;;;;11.10;99.90;;;;;;4973396;28;19928;-76
2021/12/17 06:46:59;;;;;;;;;;;11.10;99.90;;;;;;4973408;28;20005;-76
2021/12/17 06:49:42;;;;;;;;;;;11.10;99.90;;;;;;4973308;28;20305;-79
2021/12/17 06:55:05;;;;;;;;;;;11.10;99.90;;;;;;4973413;28;19925;-77
2021/12/17 06:58:16;;;;;;;;;;;11.20;99.90;;;;;;4956523;28;20236;-78
2021/12/17 07:06:12;;;;;;;;;;;11.00;99.90;;;;;;4973450;28;20008;-77
2021/12/17 07:22:23;;;;;;;;;;;11.10;99.90;;;;;;4932218;29;19910;-76
2021/12/17 07:40:30;;;;;;;;;;;11.10;99.70;;;;;;4953644;28;19966;-76
2021/12/17 07:42:55;;;;;;;;;;;11.10;99.50;;;;;;4953190;28;19914;-77
2021/12/17 07:45:21;;;;;;;;;;;11.10;99.50;;;;;;4936055;28;19921;-77
2021/12/17 07:47:46;;;;;;;;;;;11.00;99.50;;;;;;4953724;29;20012;-77
2021/12/17 07:50:12;;;;;;;;;;;11.00;99.60;;;;;;4952972;28;20355;-78
2021/12/17 07:52:37;;;;;;;;;;;11.00;99.60;;;;;;4951706;29;19942;-77
2021/12/17 07:55:03;;;;;;;;;;;10.90;99.40;;;;;;4952938;28;20604;-77
2021/12/17 07:57:28;;;;;;;;;;;10.80;99.40;;;;;;4951851;28;19914;-77
2021/12/17 07:59:54;;;;;;;;;;;10.70;99.60;;;;;;4936447;29;20241;-77
2021/12/17 08:02:19;;;;;;;;;;;10.80;99.50;;;;;;4951943;28;20017;-78
2021/12/17 08:04:45;;;;;;;;;;;10.80;99.40;;;;;;4952026;28;20344;-77
2021/12/17 08:07:10;;;;;;;;;;;10.80;99.70;;;;;;4953051;28;19961;-79
2021/12/17 08:09:36;;;;;;;;;;;10.90;99.20;;;;;;4952784;28;19917;-76
2021/12/17 08:12:02;;;;;;;;;;;10.80;99.20;;;;;;4953482;29;19979;-77
2021/12/17 08:14:29;;;;;;;;;;;10.90;99.20;;;;;;4952854;28;19915;-76
2021/12/17 08:17:09;;;;;;;;;;;10.80;99.00;;;;;;4952792;28;20320;-76
2021/12/17 08:25:12;;;;;;;;;;;10.70;98.90;;;;;;4952660;28;20009;-76
2021/12/17 08:32:32;;;;;;;;;;;10.50;99.20;;;;;;4953545;29;19907;-78
2021/12/17 08:34:58;;;;;;;;;;;10.50;99.20;;;;;;4952388;29;20009;-77
2021/12/17 08:37:23;;;;;;;;;;;10.50;99.50;;;;;;4952592;28;20339;-77
2021/12/17 08:39:49;;;;;;;;;;;10.60;99.40;;;;;;4936157;29;19941;-78
2021/12/17 08:42:14;;;;;;;;;;;10.70;99.40;;;;;;4952446;28;20488;-77
2021/12/17 08:44:40;;;;;;;;;;;10.70;99.20;;;;;;4954934;28;19909;-77
2021/12/17 08:47:05;;;;;;;;;;;10.70;99.00;;;;;;4956089;28;19922;-77
2021/12/17 08:49:32;;;;;;;;;;;10.80;99.10;;;;;;4955926;28;20130;-75
2021/12/17 08:51:58;;;;;;;;;;;10.70;98.90;;;;;;4955096;28;20343;-77
2021/12/17 08:54:23;;;;;;;;;;;10.80;98.80;;;;;;4955701;28;20363;-75
2021/12/17 08:56:49;;;;;;;;;;;10.80;98.60;;;;;;4956484;29;19906;-78
2021/12/17 08:59:16;;;;;;;;;;;10.90;98.50;;;;;;4939036;29;19910;-78
2021/12/17 09:01:43;;;;;;;;;;;10.50;98.20;;;;;;4956442;28;19927;-78
2021/12/17 09:04:08;;;;;;;;;;;10.50;98.70;;;;;;4954521;28;19993;-77
2021/12/17 09:06:34;;;;;;;;;;;10.60;98.80;;;;;;4951155;28;19930;-77
2021/12/17 09:09:00;;;;;;;;;;;10.60;98.70;;;;;;4937096;29;19934;-77
2021/12/17 09:11:26;;;;;;;;;;;10.70;98.70;;;;;;4936381;29;19911;-77
2021/12/17 09:13:52;;;;;;;;;;;10.70;98.50;;;;;;4936372;28;19946;-76
2021/12/17 09:16:20;;;;;;;;;;;10.70;98.50;;;;;;4935330;29;20002;-76
2021/12/17 09:18:47;;;;;;;;;;;10.70;98.40;;;;;;4936358;28;19994;-77
2021/12/17 09:21:12;;;;;;;;;;;10.80;98.40;;;;;;4935300;28;19911;-77
2021/12/17 09:23:39;;;;;;;;;;;10.70;98.30;;;;;;4936630;29;19902;-76
2021/12/17 09:26:04;;;;;;;;;;;10.70;98.40;;;;;;4950932;28;19926;-75
2021/12/17 09:28:31;;;;;;;;;;;10.70;98.40;;;;;;4936107;28;19911;-76
2021/12/17 09:30:57;;;;;;;;;;;10.70;98.40;;;;;;4936407;28;19942;-84
2021/12/17 09:33:23;;;;;;;;;;;10.70;98.30;;;;;;4935960;28;20313;-77
2021/12/17 09:35:48;;;;;;;;;;;10.80;98.60;;;;;;4936320;29;19906;-75
2021/12/17 09:38:14;;;;;;;;;;;10.80;98.60;;;;;;4935170;29;19914;-74
2021/12/17 09:40:39;;;;;;;;;;;10.60;98.60;;;;;;4936203;28;19911;-78
2021/12/17 09:43:05;;;;;;;;;;;10.70;98.90;;;;;;4934715;29;20297;-77
2021/12/17 09:45:30;;;;;;;;;;;10.50;98.90;;;;;;4935765;28;19911;-78
2021/12/17 09:47:56;;;;;;;;;;;10.40;99.10;;;;;;4936336;29;19918;-72
2021/12/17 09:50:22;;;;;;;;;;;10.40;99.50;;;;;;4936088;28;19911;-86
2021/12/17 09:52:48;;;;;;;;;;;10.50;99.40;;;;;;4936089;28;20312;-76
2021/12/17 09:55:14;;;;;;;;;;;10.60;99.30;;;;;;4949408;28;19993;-73
2021/12/17 09:57:40;;;;;;;;;;;10.70;99.10;;;;;;4935459;28;19922;-73
2021/12/17 10:00:07;;;;;;;;;;;10.70;99.00;;;;;;4935361;28;19918;-73
2021/12/17 10:02:33;;;;;;;;;;;10.70;98.80;;;;;;4935597;29;19906;-71
2021/12/17 10:04:58;;;;;;;;;;;10.80;98.70;;;;;;4940777;29;19933;-73
2021/12/17 10:07:25;;;;;;;;;;;10.80;98.60;;;;;;4953242;28;19919;-74
2021/12/17 10:09:52;;;;;;;;;;;10.80;98.70;;;;;;4954604;28;19910;-76
2021/12/17 10:12:21;;;;;;;;;;;10.80;98.30;;;;;;4954432;28;19933;-73
2021/12/17 10:15:07;;;;;;;;;;;10.80;98.40;;;;;;4954962;29;19918;-75
2021/12/17 10:17:34;;;;;;;;;;;10.80;98.30;;;;;;4953384;28;20207;-72
2021/12/17 10:20:00;;;;;;;;;;;10.70;98.40;;;;;;4954193;28;20333;-72
2021/12/17 10:22:26;;;;;;;;;;;10.60;98.70;;;;;;4954144;29;19929;-76
2021/12/17 10:25:03;;;;;;;;;;;10.50;98.80;;;;;;4954497;28;19910;-74
2021/12/17 10:27:31;;;;;;;;;;;10.60;98.70;;;;;;4954111;28;19914;-73
2021/12/17 10:29:58;;;;;;;;;;;10.60;98.80;;;;;;4954850;29;19950;-75
2021/12/17 10:32:25;;;;;;;;;;;10.60;98.70;;;;;;4954041;28;19922;-74
2021/12/17 10:35:00;;;;;;;;;;;10.60;98.60;;;;;;4952993;28;20073;-74
2021/12/17 10:37:38;;;;;;;;;;;10.70;98.70;;;;;;4952714;28;19918;-73
2021/12/17 10:40:21;;;;;;;;;;;10.70;98.60;;;;;;4953936;28;19914;-74
2021/12/17 10:42:54;;;;;;;;;;;10.80;98.60;;;;;;4953937;29;19941;-74
2021/12/17 10:45:27;;;;;;;;;;;10.90;98.60;;;;;;4953878;28;19941;-74
2021/12/17 10:50:48;;;;;;;;;;;11.00;98.50;;;;;;4953723;29;19969;-74
2021/12/17 10:53:14;;;;;;;;;;;11.00;98.70;;;;;;4953801;28;20013;-75
2021/12/17 10:55:43;;;;;;;;;;;11.00;98.80;;;;;;4953160;28;20009;-74
2021/12/17 10:58:09;;;;;;;;;;;11.00;98.50;;;;;;4953448;28;20586;-75
2021/12/17 11:00:41;;;;;;;;;;;11.00;98.60;;;;;;4953149;28;19974;-75
2021/12/17 11:03:07;;;;;;;;;;;11.00;98.70;;;;;;4936119;28;20008;-75
2021/12/17 11:05:33;;;;;;;;;;;11.00;99.00;;;;;;4953277;28;20000;-76
2021/12/17 11:07:59;;;;;;;;;;;10.90;98.80;;;;;;4953197;28;19969;-74
2021/12/17 11:10:31;;;;;;;;;;;10.70;98.80;;;;;;4953194;28;19922;-75
2021/12/17 11:12:57;;;;;;;;;;;10.70;99.20;;;;;;4953302;29;19989;-75
2021/12/17 11:15:24;;;;;;;;;;;10.80;99.20;;;;;;4953238;28;20425;-75
2021/12/17 11:17:51;;;;;;;;;;;10.80;99.30;;;;;;4953650;29;19937;-75
2021/12/17 11:20:17;;;;;;;;;;;10.90;99.20;;;;;;4953289;28;20017;-76
2021/12/17 11:22:44;;;;;;;;;;;11.00;99.30;;;;;;4952859;28;19969;-75
2021/12/17 11:25:10;;;;;;;;;;;11.00;99.00;;;;;;4951985;28;20013;-74
2021/12/17 11:27:36;;;;;;;;;;;11.10;99.10;;;;;;4953081;28;19928;-75
2021/12/17 11:30:03;;;;;;;;;;;11.00;99.00;;;;;;4936834;29;20407;-74
2021/12/17 11:32:29;;;;;;;;;;;11.10;99.10;;;;;;4953036;28;19914;-75
2021/12/17 11:34:55;;;;;;;;;;;11.10;99.00;;;;;;4935836;29;19914;-75
2021/12/17 11:37:21;;;;;;;;;;;11.10;98.90;;;;;;4936130;29;19910;-75
2021/12/17 11:39:55;;;;;;;;;;;11.10;98.80;;;;;;4952861;29;20345;-75
2021/12/17 11:42:40;;;;;;;;;;;11.10;98.80;;;;;;4952781;28;19914;-74
2021/12/17 11:45:25;;;;;;;;;;;11.20;98.80;;;;;;4952920;29;19978;-74
2021/12/17 11:47:57;;;;;;;;;;;11.10;98.90;;;;;;4936568;29;19903;-75
2021/12/17 11:50:22;;;;;;;;;;;10.90;98.80;;;;;;4936062;29;19990;-75
2021/12/17 11:52:49;;;;;;;;;;;10.90;99.20;;;;;;4952741;28;20076;-72
2021/12/17 11:55:27;;;;;;;;;;;10.80;99.10;;;;;;4952582;28;19970;-75
2021/12/17 11:58:05;;;;;;;;;;;10.90;99.20;;;;;;4952625;28;19910;-76
2021/12/17 12:00:32;;;;;;;;;;;10.90;99.20;;;;;;4952617;28;20264;-75
2021/12/17 12:03:15;;;;;;;;;;;11.00;99.20;;;;;;4952954;28;19945;-76
2021/12/17 12:05:42;;;;;;;;;;;11.00;99.10;;;;;;4952794;29;20032;-76
2021/12/17 12:08:23;;;;;;;;;;;10.90;99.10;;;;;;4935919;29;20299;-75
2021/12/17 12:11:02;;;;;;;;;;;11.00;99.10;;;;;;4951470;28;19910;-74
2021/12/17 12:13:39;;;;;;;;;;;11.10;99.00;;;;;;4951398;28;19946;-74
2021/12/17 12:16:05;;;;;;;;;;;11.10;99.00;;;;;;4952717;28;19930;-75
2021/12/17 12:18:38;;;;;;;;;;;11.10;99.00;;;;;;4953646;28;19910;-76
2021/12/17 12:21:04;;;;;;;;;;;11.00;98.90;;;;;;4956943;29;19922;-76
2021/12/17 12:23:29;;;;;;;;;;;11.00;99.00;;;;;;4955131;29;19915;-75
2021/12/17 12:26:01;;;;;;;;;;;11.10;99.10;;;;;;4956529;28;19956;-77
2021/12/17 12:28:49;;;;;;;;;;;10.90;99.00;;;;;;4956632;28;19937;-74
2021/12/17 12:31:25;;;;;;;;;;;10.80;99.00;;;;;;4956698;28;19922;-74
2021/12/17 12:34:03;;;;;;;;;;;10.70;99.00;;;;;;4956199;29;19998;-77
2021/12/17 12:36:43;;;;;;;;;;;10.60;99.40;;;;;;4955296;28;19918;-74
2021/12/17 12:39:26;;;;;;;;;;;10.80;99.40;;;;;;4955861;28;20403;-74
2021/12/17 12:41:55;;;;;;;;;;;10.90;99.20;;;;;;4939616;29;20320;-75
2021/12/17 12:44:41;;;;;;;;;;;10.90;99.40;;;;;;4955814;28;19911;-74
2021/12/17 12:47:08;;;;;;;;;;;11.00;99.30;;;;;;4935342;29;19910;-78
2021/12/17 12:49:44;;;;;;;;;;;11.10;99.10;;;;;;4954841;28;19972;-79
2021/12/17 12:52:25;;;;;;;;;;;11.10;99.00;;;;;;4955785;28;19914;-76
2021/12/17 12:54:51;;;;;;;;;;;11.10;99.00;;;;;;4955516;28;20324;-74
2021/12/17 12:57:49;;;;;;;;;;;11.00;98.90;;;;;;4955632;28;19906;-72
2021/12/17 13:00:18;;;;;;;;;;;11.00;98.90;;;;;;4932977;28;19906;-76
2021/12/17 13:02:44;;;;;;;;;;;11.00;98.90;;;;;;4955704;29;19994;-74
2021/12/17 13:05:10;;;;;;;;;;;11.00;99.10;;;;;;4955265;28;19953;-74
2021/12/17 13:07:53;;;;;;;;;;;11.00;98.90;;;;;;4955351;28;20289;-73
2021/12/17 13:10:25;;;;;;;;;;;11.00;99.10;;;;;;4955605;28;19910;-74
2021/12/17 13:12:58;;;;;;;;;;;10.90;98.80;;;;;;4955499;28;20358;-74
2021/12/17 13:23:20;;;;;;;;;;;10.70;98.70;;;;;;4955545;28;20284;-74
2021/12/17 13:25:45;;;;;;;;;;;10.70;98.70;;;;;;4955095;28;19910;-73
2021/12/17 13:28:10;;;;;;;;;;;10.80;98.70;;;;;;4954056;28;19933;-74
2021/12/17 13:30:36;;;;;;;;;;;10.90;98.70;;;;;;4955267;28;19915;-75
2021/12/17 13:33:02;;;;;;;;;;;10.90;98.50;;;;;;4954585;29;20016;-74
2021/12/17 13:35:33;;;;;;;;;;;10.80;98.40;;;;;;4953933;28;19925;-75
2021/12/17 13:38:01;;;;;;;;;;;10.70;98.70;;;;;;4954794;28;19938;-73
2021/12/17 13:40:27;;;;;;;;;;;10.70;98.60;;;;;;4953984;28;20320;-75
2021/12/17 13:42:56;;;;;;;;;;;10.90;98.80;;;;;;4954929;28;19942;-74
2021/12/17 13:45:22;;;;;;;;;;;10.90;98.60;;;;;;4954990;28;19910;-75
2021/12/17 13:47:48;;;;;;;;;;;10.70;98.60;;;;;;4938200;29;19906;-71
2021/12/17 13:50:14;;;;;;;;;;;10.70;98.90;;;;;;4954237;28;19914;-72
2021/12/17 13:52:53;;;;;;;;;;;10.80;99.10;;;;;;4954730;28;20343;-75
2021/12/17 13:55:20;;;;;;;;;;;10.70;98.90;;;;;;4954622;28;19918;-75
2021/12/17 13:57:46;;;;;;;;;;;10.70;98.80;;;;;;4954984;28;20267;-74
2021/12/17 14:00:12;;;;;;;;;;;10.80;98.90;;;;;;4954883;28;19920;-73
2021/12/17 14:02:39;;;;;;;;;;;10.90;98.60;;;;;;4955707;29;19965;-74
2021/12/17 14:05:24;;;;;;;;;;;10.90;98.50;;;;;;4954439;28;19933;-74
2021/12/17 14:07:51;;;;;;;;;;;11.00;98.50;;;;;;4953547;28;20452;-74
2021/12/17 14:10:18;;;;;;;;;;;11.00;98.40;;;;;;4938072;29;19921;-73
2021/12/17 14:12:45;;;;;;;;;;;11.00;98.40;;;;;;4955119;28;20002;-74
2021/12/17 14:15:21;;;;;;;;;;;10.90;98.30;;;;;;4954484;28;19918;-73
2021/12/17 14:17:48;;;;;;;;;;;10.80;98.00;;;;;;4955089;29;19961;-76
2021/12/17 14:20:16;;;;;;;;;;;10.70;97.80;;;;;;4954951;28;20408;-75
2021/12/17 14:22:47;;;;;;;;;;;10.70;97.70;;;;;;4954338;28;19922;-74
2021/12/17 14:25:23;;;;;;;;;;;10.80;97.70;;;;;;4954264;28;20005;-76
2021/12/17 14:27:51;;;;;;;;;;;10.90;97.70;;;;;;4954268;28;19914;-75
2021/12/17 14:30:22;;;;;;;;;;;10.90;97.40;;;;;;4953118;28;20229;-76
2021/12/17 14:32:48;;;;;;;;;;;10.90;97.50;;;;;;4955845;29;19926;-76
2021/12/17 14:35:14;;;;;;;;;;;11.00;97.50;;;;;;4954229;28;19914;-81
2021/12/17 14:37:56;;;;;;;;;;;10.80;97.10;;;;;;4954778;28;19918;-89
2021/12/17 14:40:24;;;;;;;;;;;10.70;97.10;;;;;;4953861;28;19910;-75
2021/12/17 14:42:53;;;;;;;;;;;10.70;97.40;;;;;;4953502;28;20314;-76
2021/12/17 14:45:21;;;;;;;;;;;10.60;97.20;;;;;;4953118;28;19917;-75
2021/12/17 14:47:55;;;;;;;;;;;10.70;97.40;;;;;;4953713;28;20355;-83
2021/12/17 15:03:43;;;;;;;;;;;10.90;96.90;;;;;;4953553;28;19910;-76
2021/12/17 15:06:13;;;;;;;;;;;10.80;97.00;;;;;;4952997;29;19923;-77
2021/12/17 15:08:39;;;;;;;;;;;10.80;97.00;;;;;;4953967;29;20224;-75
2021/12/17 15:11:10;;;;;;;;;;;10.70;97.00;;;;;;4953272;28;20005;-74
2021/12/17 15:13:36;;;;;;;;;;;10.70;97.20;;;;;;4953321;28;19993;-75
2021/12/17 15:16:02;;;;;;;;;;;10.80;97.30;;;;;;4953673;28;20029;-77
2021/12/17 15:18:28;;;;;;;;;;;10.90;97.30;;;;;;4953509;28;19993;-76
2021/12/17 15:20:56;;;;;;;;;;;10.90;97.10;;;;;;4953395;29;19960;-76
2021/12/17 15:23:22;;;;;;;;;;;10.70;97.10;;;;;;4952572;28;20059;-75
2021/12/17 15:25:48;;;;;;;;;;;10.80;97.40;;;;;;4953112;28;19949;-75
2021/12/17 15:28:15;;;;;;;;;;;10.80;97.40;;;;;;4952977;28;19910;-74
2021/12/17 15:30:45;;;;;;;;;;;10.80;97.30;;;;;;4952898;28;19911;-75
2021/12/17 15:33:11;;;;;;;;;;;10.80;97.40;;;;;;4951782;29;19966;-74
2021/12/17 15:35:37;;;;;;;;;;;10.70;97.40;;;;;;4953541;29;19953;-77
2021/12/17 15:38:04;;;;;;;;;;;10.90;97.60;;;;;;4952851;29;19914;-77
2021/12/17 15:40:30;;;;;;;;;;;10.70;97.50;;;;;;4952983;28;19914;-77
2021/12/17 15:43:02;;;;;;;;;;;10.80;97.60;;;;;;4952986;28;20045;-75
2021/12/17 15:45:28;;;;;;;;;;;10.80;97.40;;;;;;4952722;28;19910;-77
2021/12/17 15:47:53;;;;;;;;;;;10.80;97.30;;;;;;4953337;29;19907;-77
2021/12/17 15:50:19;;;;;;;;;;;10.60;97.20;;;;;;4952982;28;19997;-80
2021/12/17 15:52:48;;;;;;;;;;;10.70;97.50;;;;;;4951820;28;19917;-77
2021/12/17 15:55:18;;;;;;;;;;;10.80;97.50;;;;;;4952482;28;19924;-77
2021/12/17 15:57:44;;;;;;;;;;;11.00;97.40;;;;;;4953687;28;19910;-86
2021/12/17 16:00:10;;;;;;;;;;;10.90;97.40;;;;;;4955433;28;20375;-84
2021/12/17 16:02:39;;;;;;;;;;;11.00;97.40;;;;;;4938476;29;20018;-88
2021/12/17 16:05:07;;;;;;;;;;;11.00;97.30;;;;;;4954695;28;19930;-80
2021/12/17 16:07:33;;;;;;;;;;;11.10;97.20;;;;;;4954724;28;19910;-86
2021/12/17 16:10:44;;;;;;;;;;;11.00;97.10;;;;;;4955149;28;20450;-84
2021/12/17 16:21:03;;;;;;;;;;;11.00;96.70;;;;;;4953152;29;19902;-76
2021/12/17 16:23:30;;;;;;;;;;;10.80;96.50;;;;;;4952565;28;19911;-78
2021/12/17 16:25:56;;;;;;;;;;;10.70;96.60;;;;;;4951466;28;19920;-76
2021/12/17 16:28:21;;;;;;;;;;;10.80;96.60;;;;;;4951663;28;20017;-75
2021/12/17 16:30:47;;;;;;;;;;;10.80;96.50;;;;;;4952369;28;20349;-74
2021/12/17 16:33:12;;;;;;;;;;;10.80;96.30;;;;;;4952228;28;20430;-75
2021/12/17 16:35:39;;;;;;;;;;;10.80;96.10;;;;;;4952753;29;19910;-74
2021/12/17 16:38:05;;;;;;;;;;;10.70;96.10;;;;;;4951905;28;19910;-77
2021/12/17 16:40:30;;;;;;;;;;;10.70;96.10;;;;;;4952326;28;19911;-76
2021/12/17 16:42:57;;;;;;;;;;;10.70;96.20;;;;;;4952349;29;19942;-75
2021/12/17 16:45:29;;;;;;;;;;;10.60;96.20;;;;;;4952296;28;19906;-76
2021/12/17 16:47:56;;;;;;;;;;;10.70;96.40;;;;;;4952783;29;19917;-75
2021/12/17 16:50:26;;;;;;;;;;;10.70;96.30;;;;;;4952551;28;19949;-76
2021/12/17 16:52:52;;;;;;;;;;;10.70;96.30;;;;;;4952459;28;19980;-80
2021/12/17 16:55:18;;;;;;;;;;;10.70;96.30;;;;;;4952652;28;19973;-77
2021/12/17 16:57:44;;;;;;;;;;;10.70;96.50;;;;;;4935468;29;20314;-77
2021/12/17 17:00:09;;;;;;;;;;;10.80;96.40;;;;;;4956934;28;19967;-76
2021/12/17 17:02:35;;;;;;;;;;;10.70;96.30;;;;;;4973058;28;20280;-76
2021/12/17 17:05:00;;;;;;;;;;;10.70;96.50;;;;;;4974248;28;19922;-75
2021/12/17 17:07:28;;;;;;;;;;;10.70;96.50;;;;;;4976100;28;19973;-77
2021/12/17 17:09:53;;;;;;;;;;;10.60;96.70;;;;;;4976155;28;19910;-77
2021/12/17 17:12:19;;;;;;;;;;;10.50;96.90;;;;;;4976346;28;19920;-76
2021/12/17 17:14:45;;;;;;;;;;;10.30;97.10;;;;;;4976177;28;19917;-77
2021/12/17 17:17:10;;;;;;;;;;;10.40;97.30;;;;;;4959020;28;20247;-76
2021/12/17 17:19:36;;;;;;;;;;;10.50;97.20;;;;;;4976025;28;19920;-77
2021/12/17 17:22:05;;;;;;;;;;;10.60;97.30;;;;;;4974895;28;19941;-76
2021/12/17 17:24:31;;;;;;;;;;;10.60;97.30;;;;;;4975764;28;19968;-78
2021/12/17 17:26:57;;;;;;;;;;;10.50;97.40;;;;;;4976311;28;19906;-75
2021/12/17 17:29:23;;;;;;;;;;;10.50;97.40;;;;;;4975533;28;19992;-77
2021/12/17 17:31:48;;;;;;;;;;;10.50;97.40;;;;;;4975728;28;19961;-79